createdAt,value
2023-11-14T00:00:30.458Z,5.49
2023-11-14T00:02:57.507Z,5.48
2023-11-14T00:05:24.672Z,5.49
2023-11-14T00:07:51.669Z,5.52
2023-11-14T00:10:18.684Z,5.57
2023-11-14T00:12:45.653Z,5.56
2023-11-14T00:15:12.684Z,5.51
2023-11-14T00:17:42.757Z,5.55
2023-11-14T00:20:10.283Z,5.54
2023-11-14T00:22:39.343Z,5.57
2023-11-14T00:25:06.523Z,5.54
2023-11-14T00:27:33.535Z,5.57
2023-11-14T00:30:00.599Z,5.58
2023-11-14T00:32:28.049Z,5.60
2023-11-14T00:34:55.189Z,5.68
2023-11-14T00:37:22.669Z,5.66
2023-11-14T00:39:49.694Z,5.67
2023-11-14T00:42:16.589Z,5.65
2023-11-14T00:44:43.686Z,5.68
2023-11-14T00:47:11.593Z,5.74
2023-11-14T00:49:38.588Z,5.84
2023-11-14T00:52:06.330Z,5.76
2023-11-14T00:54:33.935Z,5.74
2023-11-14T00:57:00.962Z,5.74
2023-11-14T00:59:28.010Z,5.72
2023-11-14T01:01:56.395Z,5.76
2023-11-14T01:04:24.648Z,5.78
2023-11-14T01:06:51.603Z,5.87
2023-11-14T01:09:18.642Z,5.87
2023-11-14T01:11:45.600Z,5.90
2023-11-14T01:14:12.724Z,5.92
2023-11-14T01:16:40.307Z,5.89
2023-11-14T01:19:07.392Z,5.92
2023-11-14T01:21:34.417Z,5.92
2023-11-14T01:24:01.493Z,5.90
2023-11-14T01:26:34.324Z,5.89
2023-11-14T01:29:01.650Z,5.90
2023-11-14T01:31:30.437Z,5.89
2023-11-14T01:33:59.092Z,5.83
2023-11-14T01:36:26.112Z,5.92
2023-11-14T01:38:53.084Z,5.89
2023-11-14T01:41:20.088Z,5.88
2023-11-14T01:43:48.065Z,5.91
2023-11-14T01:46:19.689Z,5.82
2023-11-14T01:48:51.814Z,5.90
2023-11-14T01:51:19.949Z,5.93
2023-11-14T01:53:49.359Z,5.96
2023-11-14T01:56:16.622Z,5.94
2023-11-14T01:58:44.013Z,5.87
2023-11-14T02:01:14.662Z,5.96
2023-11-14T02:03:42.147Z,5.96
2023-11-14T02:06:10.629Z,6.03
2023-11-14T02:08:39.497Z,6.00
2023-11-14T02:11:07.224Z,6.02
2023-11-14T02:13:35.311Z,6.11
2023-11-14T02:16:03.041Z,6.09
2023-11-14T02:18:30.365Z,6.09
2023-11-14T02:20:57.377Z,6.10
2023-11-14T02:23:27.282Z,6.11
2023-11-14T02:25:54.875Z,6.08
2023-11-14T02:28:21.996Z,6.05
2023-11-14T02:30:49.432Z,6.08
2023-11-14T02:33:16.836Z,6.02
2023-11-14T02:35:44.105Z,6.14
2023-11-14T02:38:11.430Z,6.16
2023-11-14T02:40:38.676Z,6.22
2023-11-14T02:43:05.977Z,6.27
2023-11-14T02:45:32.896Z,6.23
2023-11-14T02:48:02.662Z,6.24
2023-11-14T02:50:55.125Z,6.28
2023-11-14T02:53:22.945Z,6.21
2023-11-14T02:55:51.394Z,6.26
2023-11-14T02:58:19.422Z,6.36
2023-11-14T03:00:47.505Z,6.38
2023-11-14T03:03:14.645Z,6.38
2023-11-14T03:05:42.428Z,6.35
2023-11-14T03:08:09.617Z,6.52
2023-11-14T03:10:36.908Z,6.49
2023-11-14T03:13:04.962Z,6.40
2023-11-14T03:15:32.028Z,6.36
2023-11-14T03:18:00.010Z,6.31
2023-11-14T03:20:33.729Z,6.36
2023-11-14T03:23:02.388Z,6.34
2023-11-14T03:25:29.515Z,6.36
2023-11-14T03:27:59.018Z,6.35
2023-11-14T03:30:25.967Z,6.31
2023-11-14T03:32:53.037Z,6.33
2023-11-14T03:35:20.087Z,6.22
2023-11-14T03:37:47.006Z,6.25
2023-11-14T03:40:14.533Z,6.33
2023-11-14T03:42:41.572Z,6.27
2023-11-14T03:45:08.779Z,6.33
2023-11-14T03:47:36.323Z,6.36
2023-11-14T03:50:09.522Z,6.39
2023-11-14T03:52:38.413Z,6.31
2023-11-14T03:55:06.530Z,6.35
2023-11-14T03:57:33.723Z,6.38
2023-11-14T04:00:00.740Z,6.36
2023-11-14T04:02:28.203Z,6.38
2023-11-14T04:04:56.074Z,6.38
2023-11-14T04:07:23.220Z,6.37
2023-11-14T04:09:50.280Z,6.35
2023-11-14T04:12:17.428Z,6.41
2023-11-14T04:14:44.629Z,6.55
2023-11-14T04:17:11.659Z,6.42
2023-11-14T04:19:38.957Z,6.38
2023-11-14T04:22:06.116Z,6.40
2023-11-14T04:24:33.240Z,6.37
2023-11-14T04:27:01.032Z,6.35
2023-11-14T04:29:28.169Z,6.39
2023-11-14T04:31:55.240Z,6.45
2023-11-14T04:34:22.298Z,6.48
2023-11-14T04:36:49.336Z,6.46
2023-11-14T04:39:16.385Z,6.53
2023-11-14T04:41:44.257Z,6.54
2023-11-14T04:44:12.703Z,6.56
2023-11-14T04:46:46.367Z,6.57
2023-11-14T04:49:13.607Z,6.56
2023-11-14T04:51:40.602Z,6.62
2023-11-14T04:54:07.570Z,6.62
2023-11-14T04:56:35.989Z,6.65
2023-11-14T04:59:04.335Z,6.66
2023-11-14T05:01:31.539Z,6.65
2023-11-14T05:03:59.124Z,6.59
2023-11-14T05:06:26.295Z,6.65
2023-11-14T05:08:53.414Z,6.66
2023-11-14T05:11:20.388Z,6.65
2023-11-14T05:13:47.373Z,6.64
2023-11-14T05:16:22.164Z,6.58
2023-11-14T05:18:51.710Z,6.58
2023-11-14T05:21:18.848Z,6.58
2023-11-14T05:23:45.899Z,6.57
2023-11-14T05:26:13.110Z,6.63
2023-11-14T05:28:40.168Z,6.66
2023-11-14T05:31:08.911Z,6.69
2023-11-14T05:33:35.974Z,6.67
2023-11-14T05:36:03.080Z,6.72
2023-11-14T05:38:31.122Z,6.71
2023-11-14T05:40:58.333Z,6.66
2023-11-14T05:43:25.888Z,6.68
2023-11-14T05:45:53.017Z,6.69
2023-11-14T05:48:21.053Z,6.68
2023-11-14T05:50:48.901Z,6.63
2023-11-14T05:53:19.332Z,6.59
2023-11-14T05:55:46.456Z,6.61
2023-11-14T05:58:13.552Z,6.56
2023-11-14T06:00:40.586Z,6.62
2023-11-14T06:03:07.866Z,6.63
2023-11-14T06:05:35.134Z,6.69
2023-11-14T06:08:02.868Z,6.72
2023-11-14T06:10:30.092Z,6.75
2023-11-14T06:12:59.723Z,6.75
2023-11-14T06:15:27.295Z,6.70
2023-11-14T06:17:55.097Z,6.80
2023-11-14T06:20:25.703Z,7.00
2023-11-14T06:22:52.789Z,6.82
2023-11-14T06:25:20.105Z,6.82
2023-11-14T06:27:47.965Z,6.77
2023-11-14T06:30:15.090Z,6.76
2023-11-14T06:32:42.884Z,6.79
2023-11-14T06:35:10.622Z,6.81
2023-11-14T06:37:38.614Z,6.83
2023-11-14T06:40:06.508Z,6.92
2023-11-14T06:42:35.243Z,7.05
2023-11-14T06:45:02.297Z,7.02
2023-11-14T06:47:29.508Z,7.13
2023-11-14T06:49:56.766Z,7.24
2023-11-14T06:52:23.846Z,7.27
2023-11-14T06:54:50.833Z,7.25
2023-11-14T06:57:18.030Z,7.24
2023-11-14T06:59:48.260Z,7.20
2023-11-14T07:02:15.726Z,7.25
2023-11-14T07:04:43.083Z,7.29
2023-11-14T07:07:10.208Z,7.36
2023-11-14T07:09:37.632Z,7.44
2023-11-14T07:12:04.885Z,7.46
2023-11-14T07:14:31.943Z,7.51
2023-11-14T07:16:58.977Z,7.62
2023-11-14T07:19:26.009Z,7.60
2023-11-14T07:21:53.113Z,7.58
2023-11-14T07:24:20.160Z,7.63
2023-11-14T07:26:47.234Z,7.64
2023-11-14T07:29:14.831Z,7.48
2023-11-14T07:31:43.773Z,7.39
2023-11-14T07:34:11.094Z,7.35
2023-11-14T07:36:38.389Z,7.38
2023-11-14T07:39:06.812Z,7.50
2023-11-14T07:41:37.023Z,7.48
2023-11-14T07:44:04.115Z,7.61
2023-11-14T07:46:31.259Z,7.70
2023-11-14T07:48:58.381Z,7.64
2023-11-14T07:51:25.400Z,7.66
2023-11-14T07:53:55.540Z,7.65
2023-11-14T07:56:23.186Z,7.68
2023-11-14T07:58:50.923Z,7.67
2023-11-14T08:01:18.138Z,7.72
2023-11-14T08:03:46.127Z,7.80
2023-11-14T08:06:13.301Z,7.74
2023-11-14T08:08:40.260Z,7.77
2023-11-14T08:11:07.748Z,7.82
2023-11-14T08:13:34.774Z,7.81
2023-11-14T08:16:01.771Z,7.83
2023-11-14T08:18:28.881Z,7.85
2023-11-14T08:20:57.275Z,7.84
2023-11-14T08:23:24.245Z,7.95
2023-11-14T08:25:51.367Z,8.28
2023-11-14T08:28:18.360Z,8.16
2023-11-14T08:30:45.302Z,8.09
2023-11-14T08:33:12.277Z,8.07
2023-11-14T08:35:39.454Z,8.26
2023-11-14T08:38:14.032Z,8.26
2023-11-14T08:40:46.901Z,8.14
2023-11-14T08:43:14.957Z,8.12
2023-11-14T08:45:42.046Z,8.18
2023-11-14T08:48:09.652Z,8.47
2023-11-14T08:50:40.919Z,8.55
2023-11-14T08:53:08.052Z,8.45
2023-11-14T08:55:35.301Z,8.62
2023-11-14T08:58:02.289Z,8.80
2023-11-14T09:00:31.343Z,8.87
2023-11-14T09:02:59.748Z,8.88
2023-11-14T09:05:26.849Z,8.86
2023-11-14T09:07:54.035Z,9.50
2023-11-14T09:10:21.074Z,10.04
2023-11-14T09:12:49.348Z,10.25
2023-11-14T09:15:16.510Z,10.12
2023-11-14T09:17:47.220Z,10.32
2023-11-14T09:20:18.408Z,10.50
2023-11-14T09:22:45.965Z,10.55
2023-11-14T09:25:13.042Z,11.08
2023-11-14T09:27:40.150Z,11.24
2023-11-14T09:30:07.792Z,11.58
2023-11-14T09:32:34.792Z,12.04
2023-11-14T09:35:01.867Z,11.97
2023-11-14T09:37:29.306Z,11.40
2023-11-14T09:39:56.235Z,11.41
2023-11-14T09:42:24.174Z,11.19
2023-11-14T09:44:51.902Z,11.05
2023-11-14T09:47:18.978Z,10.96
2023-11-14T09:49:46.006Z,11.70
2023-11-14T09:52:13.524Z,11.56
2023-11-14T09:54:43.417Z,11.54
2023-11-14T09:57:12.644Z,11.62
2023-11-14T09:59:43.139Z,11.65
2023-11-14T10:02:11.127Z,11.77
2023-11-14T10:04:44.612Z,11.97
2023-11-14T10:07:21.337Z,11.80
2023-11-14T10:09:49.005Z,11.90
2023-11-14T10:12:35.080Z,11.85
2023-11-14T10:15:02.497Z,12.06
2023-11-14T10:17:50.068Z,12.74
2023-11-14T10:20:22.794Z,12.93
2023-11-14T10:22:59.162Z,13.33
2023-11-14T10:25:33.790Z,13.58
2023-11-14T10:28:05.544Z,13.33
2023-11-14T10:31:14.977Z,13.60
2023-11-14T10:33:44.374Z,13.82
2023-11-14T10:36:12.500Z,13.66
2023-11-14T10:38:39.676Z,13.77
2023-11-14T10:41:06.704Z,13.93
2023-11-14T10:43:36.394Z,14.18
2023-11-14T10:46:16.742Z,13.91
2023-11-14T10:48:43.898Z,13.64
2023-11-14T10:51:13.221Z,13.92
2023-11-14T10:53:43.429Z,13.86
2023-11-14T10:56:13.587Z,13.69
2023-11-14T10:58:40.565Z,13.57
2023-11-14T11:01:07.959Z,13.17
2023-11-14T11:03:35.601Z,13.05
2023-11-14T11:06:04.359Z,13.00
2023-11-14T11:08:31.268Z,13.05
2023-11-14T11:10:58.544Z,12.91
2023-11-14T11:13:28.122Z,12.82
2023-11-14T11:15:56.903Z,12.58
2023-11-14T11:18:35.510Z,12.58
2023-11-14T11:21:09.940Z,12.37
2023-11-14T11:24:11.736Z,12.37
2023-11-14T11:27:06.970Z,12.38
2023-11-14T11:29:49.263Z,12.29
2023-11-14T11:32:27.755Z,12.28
2023-11-14T11:35:25.818Z,12.32
2023-11-14T11:38:11.305Z,12.55
2023-11-14T11:41:13.260Z,12.67
2023-11-14T11:43:46.413Z,12.60
2023-11-14T11:46:35.681Z,12.58
2023-11-14T11:49:11.983Z,12.58
2023-11-14T11:51:39.933Z,12.43
2023-11-14T11:54:29.920Z,12.54
2023-11-14T11:57:12.214Z,12.45
2023-11-14T11:59:42.191Z,12.48
2023-11-14T12:02:16.171Z,12.51
2023-11-14T12:04:43.851Z,12.62
2023-11-14T12:07:10.975Z,12.63
2023-11-14T12:09:38.729Z,12.46
2023-11-14T12:12:06.156Z,12.62
2023-11-14T12:14:33.248Z,12.69
2023-11-14T12:17:01.366Z,12.43
2023-11-14T12:19:28.419Z,12.47
2023-11-14T12:21:56.337Z,12.31
2023-11-14T12:24:23.833Z,12.42
2023-11-14T12:26:51.139Z,12.42
2023-11-14T12:29:19.310Z,12.52
2023-11-14T12:31:52.627Z,12.65
2023-11-14T12:34:32.739Z,12.71
2023-11-14T12:37:16.168Z,12.50
2023-11-14T12:39:43.209Z,12.53
2023-11-14T12:42:11.028Z,12.35
2023-11-14T12:44:38.172Z,12.43
2023-11-14T12:47:09.908Z,12.52
2023-11-14T12:49:48.623Z,12.75
2023-11-14T12:52:15.943Z,12.45
2023-11-14T12:54:42.923Z,12.34
2023-11-14T12:57:12.082Z,12.33
2023-11-14T12:59:40.385Z,12.33
2023-11-14T13:02:07.458Z,12.47
2023-11-14T13:04:34.579Z,12.35
2023-11-14T13:07:01.553Z,12.17
2023-11-14T13:09:31.106Z,12.37
2023-11-14T13:11:58.356Z,12.32
2023-11-14T13:14:25.380Z,12.35
2023-11-14T13:16:52.531Z,12.52
2023-11-14T13:19:19.598Z,12.47
2023-11-14T13:21:46.626Z,12.34
2023-11-14T13:24:13.933Z,12.32
2023-11-14T13:26:40.895Z,12.38
2023-11-14T13:29:08.080Z,12.36
2023-11-14T13:31:35.524Z,12.21
2023-11-14T13:34:02.757Z,12.31
2023-11-14T13:36:30.593Z,12.28
2023-11-14T13:38:57.605Z,12.34
2023-11-14T13:41:25.394Z,12.28
2023-11-14T13:43:52.575Z,12.22
2023-11-14T13:46:26.685Z,11.95
2023-11-14T13:48:56.353Z,11.88
2023-11-14T13:51:23.944Z,11.91
2023-11-14T13:53:51.946Z,12.05
2023-11-14T13:56:19.324Z,11.85
2023-11-14T13:58:46.818Z,11.83
2023-11-14T14:01:15.919Z,11.85
2023-11-14T14:03:43.065Z,11.98
2023-11-14T14:06:10.801Z,11.93
2023-11-14T14:08:38.340Z,12.00
2023-11-14T14:11:08.973Z,12.20
2023-11-14T14:13:36.415Z,12.00
2023-11-14T14:16:04.821Z,11.87
2023-11-14T14:18:33.213Z,11.81
2023-11-14T14:21:04.244Z,11.76
2023-11-14T14:23:31.870Z,11.66
2023-11-14T14:25:59.044Z,11.53
2023-11-14T14:28:33.000Z,11.45
2023-11-14T14:31:01.845Z,11.37
2023-11-14T14:33:29.177Z,11.45
2023-11-14T14:35:56.259Z,11.41
2023-11-14T14:38:23.710Z,11.38
2023-11-14T14:40:50.980Z,11.28
2023-11-14T14:43:18.058Z,11.21
2023-11-14T14:45:47.396Z,11.14
2023-11-14T14:48:14.861Z,11.05
2023-11-14T14:50:41.893Z,10.92
2023-11-14T14:53:11.372Z,10.92
2023-11-14T14:55:38.458Z,10.87
2023-11-14T14:58:08.050Z,10.81
2023-11-14T15:00:35.308Z,10.83
2023-11-14T15:03:03.092Z,10.93
2023-11-14T15:05:36.613Z,10.96
2023-11-14T15:08:08.106Z,11.10
2023-11-14T15:10:36.301Z,10.99
2023-11-14T15:13:05.333Z,10.86
2023-11-14T15:15:32.923Z,10.85
2023-11-14T15:18:00.040Z,10.85
2023-11-14T15:20:27.402Z,10.87
2023-11-14T15:22:54.621Z,10.79
2023-11-14T15:25:21.842Z,10.91
2023-11-14T15:27:49.011Z,10.79
2023-11-14T15:30:16.375Z,10.39
2023-11-14T15:32:44.014Z,10.32
2023-11-14T15:35:11.389Z,10.27
2023-11-14T15:37:39.727Z,10.27
2023-11-14T15:40:10.894Z,10.20
2023-11-14T15:42:39.773Z,10.15
2023-11-14T15:45:07.559Z,10.19
2023-11-14T15:47:35.396Z,10.12
2023-11-14T15:50:02.598Z,10.05
2023-11-14T15:52:29.715Z,9.94
2023-11-14T15:54:59.152Z,9.97
2023-11-14T15:57:27.799Z,9.96
2023-11-14T15:59:55.373Z,9.95
2023-11-14T16:02:22.688Z,9.79
2023-11-14T16:04:50.036Z,9.81
2023-11-14T16:07:17.032Z,9.71
2023-11-14T16:09:43.963Z,9.64
2023-11-14T16:12:11.041Z,9.67
2023-11-14T16:14:38.040Z,9.54
2023-11-14T16:17:05.694Z,9.59
2023-11-14T16:19:38.315Z,9.55
2023-11-14T16:22:06.628Z,9.66
2023-11-14T16:24:34.008Z,9.56
2023-11-14T16:27:02.171Z,9.51
2023-11-14T16:29:29.426Z,9.51
2023-11-14T16:31:56.981Z,9.61
2023-11-14T16:34:24.261Z,9.56
2023-11-14T16:36:51.291Z,9.45
2023-11-14T16:39:18.439Z,9.51
2023-11-14T16:41:45.695Z,9.62
2023-11-14T16:44:12.857Z,9.89
2023-11-14T16:46:40.585Z,9.80
2023-11-14T16:49:07.931Z,9.43
2023-11-14T16:51:35.312Z,9.24
2023-11-14T16:54:03.198Z,9.18
2023-11-14T16:56:30.843Z,9.10
2023-11-14T16:59:00.071Z,9.02
2023-11-14T17:01:28.940Z,8.93
2023-11-14T17:03:59.287Z,9.25
2023-11-14T17:06:26.578Z,9.12
2023-11-14T17:08:53.534Z,9.02
2023-11-14T17:11:20.649Z,8.96
2023-11-14T17:13:48.012Z,8.97
2023-11-14T17:16:15.088Z,8.93
2023-11-14T17:18:42.234Z,8.92
2023-11-14T17:21:10.685Z,8.94
2023-11-14T17:23:39.216Z,8.93
2023-11-14T17:26:07.486Z,8.89
2023-11-14T17:28:37.749Z,8.89
2023-11-14T17:31:05.779Z,8.80
2023-11-14T17:33:32.787Z,8.80
2023-11-14T17:35:59.849Z,8.84
2023-11-14T17:38:27.556Z,8.66
2023-11-14T17:40:54.484Z,8.67
2023-11-14T17:43:21.484Z,8.65
2023-11-14T17:45:49.049Z,8.66
2023-11-14T17:48:16.324Z,8.68
2023-11-14T17:50:47.468Z,8.68
2023-11-14T17:53:15.132Z,8.58
2023-11-14T17:55:42.399Z,8.81
2023-11-14T17:58:09.474Z,8.71
2023-11-14T18:00:36.696Z,8.67
2023-11-14T18:03:04.205Z,8.60
2023-11-14T18:05:31.604Z,8.59
2023-11-14T18:08:05.785Z,8.60
2023-11-14T18:10:35.576Z,8.58
2023-11-14T18:13:03.677Z,8.54
2023-11-14T18:15:31.506Z,8.58
2023-11-14T18:17:59.719Z,8.49
2023-11-14T18:20:27.614Z,8.50
2023-11-14T18:22:57.804Z,8.46
2023-11-14T18:25:24.830Z,8.52
2023-11-14T18:27:51.861Z,8.53
2023-11-14T18:30:19.126Z,8.56
2023-11-14T18:32:48.169Z,8.50
2023-11-14T18:35:15.773Z,8.37
2023-11-14T18:37:42.851Z,8.40
2023-11-14T18:40:11.317Z,8.49
2023-11-14T18:42:41.326Z,8.52
2023-11-14T18:45:09.234Z,8.53
2023-11-14T18:47:37.081Z,8.53
2023-11-14T18:50:05.732Z,8.46
2023-11-14T18:52:34.071Z,8.42
2023-11-14T18:55:01.231Z,8.43
2023-11-14T18:57:28.426Z,8.44
2023-11-14T18:59:56.126Z,8.36
2023-11-14T19:02:23.799Z,8.35
2023-11-14T19:04:51.558Z,8.28
2023-11-14T19:07:20.027Z,8.26
2023-11-14T19:09:47.532Z,8.20
2023-11-14T19:12:14.701Z,8.28
2023-11-14T19:14:41.680Z,8.29
2023-11-14T19:17:08.756Z,8.26
2023-11-14T19:19:36.520Z,8.25
2023-11-14T19:22:26.500Z,8.22
2023-11-14T19:25:01.440Z,8.25
2023-11-14T19:27:31.036Z,8.25
2023-11-14T19:29:58.094Z,8.29
2023-11-14T19:32:25.385Z,8.27
2023-11-14T19:34:52.551Z,8.29
2023-11-14T19:37:20.071Z,8.25
2023-11-14T19:39:47.194Z,8.28
2023-11-14T19:42:16.801Z,8.21
2023-11-14T19:44:44.925Z,8.21
2023-11-14T19:47:11.943Z,8.20
2023-11-14T19:49:45.036Z,8.20
2023-11-14T19:52:14.458Z,8.18
2023-11-14T19:54:41.781Z,8.07
2023-11-14T19:57:09.393Z,8.06
2023-11-14T19:59:37.119Z,8.17
2023-11-14T20:02:04.692Z,8.18
2023-11-14T20:04:31.760Z,8.17
2023-11-14T20:06:59.358Z,8.09
2023-11-14T20:09:26.799Z,8.14
2023-11-14T20:11:55.727Z,8.18
2023-11-14T20:14:23.170Z,8.11
2023-11-14T20:16:50.749Z,8.07
2023-11-14T20:19:21.296Z,8.06
2023-11-14T20:21:48.446Z,8.15
2023-11-14T20:24:15.482Z,8.11
2023-11-14T20:26:43.164Z,8.18
2023-11-14T20:29:10.593Z,8.15
2023-11-14T20:31:37.872Z,8.07
2023-11-14T20:34:05.006Z,8.13
2023-11-14T20:36:32.550Z,8.14
2023-11-14T20:39:00.429Z,8.14
2023-11-14T20:41:28.498Z,8.13
2023-11-14T20:43:56.756Z,8.14
2023-11-14T20:46:25.040Z,8.03
2023-11-14T20:48:53.297Z,8.12
2023-11-14T20:51:25.428Z,8.15
2023-11-14T20:53:56.290Z,8.09
2023-11-14T20:56:26.706Z,8.14
2023-11-14T20:58:54.402Z,8.13
2023-11-14T21:01:22.187Z,8.08
2023-11-14T21:03:49.525Z,8.06
2023-11-14T21:06:17.777Z,8.03
2023-11-14T21:08:44.949Z,7.93
2023-11-14T21:11:12.101Z,7.91
2023-11-14T21:13:40.339Z,7.89
2023-11-14T21:16:12.003Z,7.94
2023-11-14T21:18:39.888Z,7.96
2023-11-14T21:21:08.521Z,7.99
2023-11-14T21:23:40.271Z,7.97
2023-11-14T21:26:10.081Z,8.07
2023-11-14T21:28:37.723Z,8.08
2023-11-14T21:31:08.660Z,8.08
2023-11-14T21:33:37.289Z,8.05
2023-11-14T21:36:08.105Z,8.09
2023-11-14T21:38:35.192Z,8.08
2023-11-14T21:41:02.680Z,8.02
2023-11-14T21:43:30.657Z,8.02
2023-11-14T21:45:57.625Z,8.00
2023-11-14T21:48:25.055Z,7.86
2023-11-14T21:50:52.337Z,7.93
2023-11-14T21:53:19.615Z,7.97
2023-11-14T21:55:47.394Z,7.94
2023-11-14T21:58:14.441Z,7.91
2023-11-14T22:00:41.752Z,7.86
2023-11-14T22:03:08.952Z,7.87
2023-11-14T22:05:36.134Z,7.89
2023-11-14T22:08:03.773Z,7.91
2023-11-14T22:10:31.184Z,7.93
2023-11-14T22:12:58.118Z,7.92
2023-11-14T22:15:25.500Z,7.92
2023-11-14T22:17:53.252Z,7.92
2023-11-14T22:20:20.423Z,7.86
2023-11-14T22:22:47.600Z,7.76
2023-11-14T22:25:14.761Z,7.74
2023-11-14T22:27:43.330Z,7.75
2023-11-14T22:30:11.166Z,7.65
2023-11-14T22:32:38.543Z,7.69
2023-11-14T22:35:06.210Z,7.54
2023-11-14T22:37:33.164Z,7.63
2023-11-14T22:40:01.341Z,7.66
2023-11-14T22:42:28.294Z,7.62
2023-11-14T22:44:57.259Z,7.67
2023-11-14T22:47:24.990Z,7.70
2023-11-14T22:49:52.733Z,7.64
2023-11-14T22:52:19.722Z,7.75
2023-11-14T22:54:47.226Z,7.68
2023-11-14T22:57:14.230Z,7.66
2023-11-14T22:59:41.348Z,7.52
2023-11-14T23:02:09.793Z,7.40
2023-11-14T23:04:39.094Z,7.42
2023-11-14T23:07:08.841Z,7.52
2023-11-14T23:09:36.524Z,7.43
2023-11-14T23:12:07.254Z,7.42
2023-11-14T23:14:34.611Z,7.43
2023-11-14T23:17:01.706Z,7.46
2023-11-14T23:19:29.473Z,7.50
2023-11-14T23:21:59.830Z,7.50
2023-11-14T23:24:27.182Z,7.45
2023-11-14T23:26:54.160Z,7.51
2023-11-14T23:29:21.175Z,7.66
2023-11-14T23:31:48.182Z,7.63
2023-11-14T23:34:16.028Z,7.60
2023-11-14T23:36:43.192Z,7.69
2023-11-14T23:39:10.105Z,7.98
2023-11-14T23:41:37.295Z,8.02
2023-11-14T23:44:04.768Z,7.90
2023-11-14T23:46:31.727Z,8.07
2023-11-14T23:48:58.646Z,7.93
2023-11-14T23:51:25.729Z,7.83
2023-11-14T23:53:53.828Z,7.82
2023-11-14T23:56:20.859Z,7.77
2023-11-14T23:58:47.845Z,7.75
